Terminal Aerodrome Forecast
Issued by NWS Twin Cities, MN

Home | Current Version | Previous Version | Graphics & Text | Print | Product List | Glossary On
Versions: 1 2 3 4 5 6 7 8 9 10 11 12 13 14 15 16 17 18 19 20 21 22 23 24
000
FTUS43 KMPX 281700
TAFMSP
TAF
KMSP 281720Z 2818/2924 27012G22KT P6SM BKN025 OVC040
     FM282100 28015G24KT P6SM SCT025 BKN040
     FM290200 29012KT P6SM SCT025 BKN040
     FM291000 31006KT P6SM SCT018 BKN040
     FM291700 28007KT P6SM SCT025 SCT250=

USA.gov is the U.S. government's official web portal to all federal, state and local government web resources and services.